createdAt,value
2019-02-14T00:00:53.502Z,59.09
2019-02-14T00:03:27.027Z,59.39
2019-02-14T00:06:00.585Z,59.26
2019-02-14T00:08:34.188Z,59.06
2019-02-14T00:11:07.806Z,59.10
2019-02-14T00:13:41.253Z,59.09
2019-02-14T00:16:14.711Z,59.12
2019-02-14T00:18:48.059Z,59.15
2019-02-14T00:21:21.578Z,59.06
2019-02-14T00:23:54.947Z,59.02
2019-02-14T00:26:28.427Z,59.19
2019-02-14T00:29:01.863Z,59.04
2019-02-14T00:31:35.257Z,59.09
2019-02-14T00:34:08.824Z,58.98
2019-02-14T00:36:42.312Z,58.92
2019-02-14T00:39:15.732Z,58.86
2019-02-14T00:41:49.111Z,58.71
2019-02-14T00:44:22.460Z,58.91
2019-02-14T00:46:55.980Z,58.74
2019-02-14T00:49:29.500Z,58.62
2019-02-14T00:52:03.070Z,58.80
2019-02-14T00:54:36.423Z,58.79
2019-02-14T00:57:09.872Z,58.65
2019-02-14T00:59:43.358Z,58.83
2019-02-14T01:02:16.935Z,58.85
2019-02-14T01:04:50.357Z,58.78
2019-02-14T01:07:23.817Z,58.78
2019-02-14T01:09:57.241Z,58.73
2019-02-14T01:12:30.700Z,58.62
2019-02-14T01:15:06.838Z,58.65
2019-02-14T01:17:40.210Z,58.45
2019-02-14T01:20:13.566Z,58.68
2019-02-14T01:22:47.098Z,58.85
2019-02-14T01:25:20.544Z,58.61
2019-02-14T01:27:53.967Z,58.60
2019-02-14T01:30:27.421Z,58.64
2019-02-14T01:33:00.773Z,58.84
2019-02-14T01:35:41.808Z,58.56
2019-02-14T01:38:09.557Z,58.38
2019-02-14T01:40:43.044Z,58.47
2019-02-14T01:43:16.493Z,58.56
2019-02-14T01:45:49.942Z,58.33
2019-02-14T01:48:23.357Z,58.29
2019-02-14T01:50:56.787Z,58.60
2019-02-14T01:53:30.272Z,58.59
2019-02-14T01:56:03.698Z,58.41
2019-02-14T01:58:37.122Z,58.55
2019-02-14T02:01:10.534Z,58.44
2019-02-14T02:03:43.994Z,58.49
2019-02-14T02:06:17.374Z,58.41
2019-02-14T02:08:50.942Z,58.39
2019-02-14T02:11:24.390Z,58.53
2019-02-14T02:13:57.945Z,58.55
2019-02-14T02:16:31.374Z,58.59
2019-02-14T02:19:04.972Z,58.54
2019-02-14T02:21:38.486Z,58.55
2019-02-14T02:24:12.144Z,58.62
2019-02-14T02:26:45.500Z,58.62
2019-02-14T02:29:18.934Z,58.61
2019-02-14T02:31:52.506Z,58.50
2019-02-14T02:34:25.931Z,58.69
2019-02-14T02:36:59.356Z,58.63
2019-02-14T02:39:32.840Z,58.68
2019-02-14T02:42:06.244Z,58.71
2019-02-14T02:44:39.623Z,58.87
2019-02-14T02:47:13.038Z,58.74
2019-02-14T02:49:46.426Z,58.87
2019-02-14T02:52:19.944Z,58.98
2019-02-14T02:54:53.349Z,59.08
2019-02-14T02:57:26.821Z,59.14
2019-02-14T03:00:00.317Z,59.18
2019-02-14T03:02:33.768Z,59.27
2019-02-14T03:05:10.103Z,59.32
2019-02-14T03:07:43.500Z,59.41
2019-02-14T03:10:16.851Z,59.38
2019-02-14T03:12:50.187Z,59.52
2019-02-14T03:15:23.607Z,59.66
2019-02-14T03:17:56.988Z,59.66
2019-02-14T03:20:30.450Z,59.53
2019-02-14T03:23:03.860Z,59.51
2019-02-14T03:25:37.239Z,59.57
2019-02-14T03:28:10.642Z,59.65
2019-02-14T03:30:44.030Z,59.51
2019-02-14T03:33:17.448Z,59.33
2019-02-14T03:35:50.922Z,59.47
2019-02-14T03:38:24.272Z,59.41
2019-02-14T03:40:57.691Z,59.57
2019-02-14T03:43:31.086Z,59.62
2019-02-14T03:46:04.623Z,59.53
2019-02-14T03:48:37.956Z,59.42
2019-02-14T03:51:11.338Z,59.66
2019-02-14T03:53:44.702Z,59.63
2019-02-14T03:56:18.100Z,59.61
2019-02-14T03:58:51.423Z,59.74
2019-02-14T04:01:24.838Z,59.77
2019-02-14T04:03:58.213Z,59.88
2019-02-14T04:06:31.648Z,59.83
2019-02-14T04:09:07.516Z,59.77
2019-02-14T04:11:41.032Z,59.65
2019-02-14T04:14:14.432Z,59.56
2019-02-14T04:16:47.790Z,59.49
2019-02-14T04:19:21.118Z,59.66
2019-02-14T04:21:54.544Z,59.65
2019-02-14T04:24:27.966Z,59.56
2019-02-14T04:27:01.477Z,59.60
2019-02-14T04:29:34.819Z,59.57
2019-02-14T04:32:08.205Z,59.64
2019-02-14T04:34:41.598Z,59.58
2019-02-14T04:37:15.038Z,59.66
2019-02-14T04:39:48.670Z,59.55
2019-02-14T04:42:22.118Z,59.88
2019-02-14T04:44:55.514Z,60.06
2019-02-14T04:47:28.979Z,60.19
2019-02-14T04:50:02.406Z,60.21
2019-02-14T04:52:35.794Z,60.49
2019-02-14T04:55:10.575Z,60.57
2019-02-14T04:57:44.380Z,60.52
2019-02-14T05:00:17.776Z,60.42
2019-02-14T05:02:51.154Z,60.43
2019-02-14T05:05:24.644Z,60.47
2019-02-14T05:07:58.066Z,60.47
2019-02-14T05:10:31.462Z,60.50
2019-02-14T05:13:04.924Z,60.50
2019-02-14T05:15:38.381Z,60.54
2019-02-14T05:18:11.809Z,60.45
2019-02-14T05:20:45.171Z,60.69
2019-02-14T05:23:18.607Z,60.51
2019-02-14T05:25:51.999Z,60.54
2019-02-14T05:28:25.396Z,61.46
2019-02-14T05:30:58.820Z,61.37
2019-02-14T05:33:32.178Z,61.09
2019-02-14T05:36:05.566Z,61.04
2019-02-14T05:38:38.931Z,61.00
2019-02-14T05:41:12.329Z,61.00
2019-02-14T05:43:45.764Z,60.50
2019-02-14T05:46:19.106Z,60.50
2019-02-14T05:48:52.543Z,60.43
2019-02-14T05:51:25.874Z,60.43
2019-02-14T05:53:59.240Z,60.63
2019-02-14T05:56:32.705Z,60.45
2019-02-14T05:59:06.097Z,60.72
2019-02-14T06:01:39.614Z,60.69
2019-02-14T06:04:13.050Z,60.94
2019-02-14T06:06:46.388Z,60.92
2019-02-14T06:09:19.841Z,61.00
2019-02-14T06:11:53.289Z,61.24
2019-02-14T06:14:26.708Z,61.07
2019-02-14T06:17:00.047Z,61.19
2019-02-14T06:19:33.422Z,61.30
2019-02-14T06:22:06.829Z,61.27
2019-02-14T06:24:40.233Z,61.28
2019-02-14T06:27:14.034Z,61.26
2019-02-14T06:29:47.386Z,61.17
2019-02-14T06:32:20.891Z,61.15
2019-02-14T06:34:54.282Z,61.12
2019-02-14T06:37:27.876Z,61.18
2019-02-14T06:40:01.220Z,61.11
2019-02-14T06:42:34.714Z,61.08
2019-02-14T06:45:13.415Z,61.17
2019-02-14T06:47:46.934Z,61.19
2019-02-14T06:50:20.353Z,61.06
2019-02-14T06:52:53.780Z,61.27
2019-02-14T06:55:28.839Z,61.23
2019-02-14T06:58:02.213Z,61.23
2019-02-14T07:00:35.677Z,61.18
2019-02-14T07:03:09.055Z,61.11
2019-02-14T07:05:42.393Z,61.05
2019-02-14T07:08:15.820Z,61.15
2019-02-14T07:10:49.184Z,61.09
2019-02-14T07:13:22.596Z,61.11
2019-02-14T07:15:56.051Z,61.03
2019-02-14T07:18:29.479Z,61.10
2019-02-14T07:21:04.483Z,61.33
2019-02-14T07:23:37.911Z,61.45
2019-02-14T07:26:11.330Z,61.43
2019-02-14T07:28:44.826Z,61.56
2019-02-14T07:31:18.176Z,61.72
2019-02-14T07:33:51.646Z,61.78
2019-02-14T07:36:25.085Z,61.82
2019-02-14T07:38:58.493Z,61.76
2019-02-14T07:41:31.840Z,61.66
2019-02-14T07:44:05.280Z,61.68
2019-02-14T07:46:38.645Z,61.70
2019-02-14T07:49:12.105Z,61.50
2019-02-14T07:51:45.592Z,61.47
2019-02-14T07:54:19.039Z,61.47
2019-02-14T07:56:52.602Z,61.37
2019-02-14T07:59:25.999Z,61.29
2019-02-14T08:01:59.473Z,61.37
2019-02-14T08:04:32.908Z,61.39
2019-02-14T08:07:06.227Z,61.23
2019-02-14T08:09:39.594Z,61.36
2019-02-14T08:12:12.997Z,61.10
2019-02-14T08:14:46.439Z,60.74
2019-02-14T08:17:19.845Z,60.43
2019-02-14T08:19:53.292Z,60.42
2019-02-14T08:22:26.678Z,60.49
2019-02-14T08:25:01.573Z,60.29
2019-02-14T08:27:34.871Z,60.11
2019-02-14T08:30:15.197Z,59.76
2019-02-14T08:32:48.615Z,59.61
2019-02-14T08:35:22.066Z,59.38
2019-02-14T08:37:55.397Z,59.09
2019-02-14T08:40:33.385Z,58.75
2019-02-14T08:43:06.894Z,59.00
2019-02-14T08:45:40.317Z,58.71
2019-02-14T08:48:13.809Z,58.93
2019-02-14T08:50:47.203Z,58.95
2019-02-14T08:53:22.687Z,58.33
2019-02-14T08:55:55.694Z,58.54
2019-02-14T08:58:29.115Z,58.22
2019-02-14T09:01:02.544Z,58.22
2019-02-14T09:03:35.880Z,58.12
2019-02-14T09:06:09.313Z,57.86
2019-02-14T09:08:42.651Z,57.62
2019-02-14T09:11:16.001Z,56.90
2019-02-14T09:13:49.365Z,55.90
2019-02-14T09:16:22.838Z,55.31
2019-02-14T09:18:56.272Z,55.03
2019-02-14T09:21:29.706Z,54.60
2019-02-14T09:24:03.183Z,54.17
2019-02-14T09:26:36.627Z,53.57
2019-02-14T09:29:12.710Z,53.37
2019-02-14T09:31:45.197Z,52.19
2019-02-14T09:34:18.785Z,51.67
2019-02-14T09:36:52.191Z,51.51
2019-02-14T09:39:25.727Z,51.46
2019-02-14T09:41:59.162Z,51.20
2019-02-14T09:44:32.531Z,50.36
2019-02-14T09:47:05.957Z,49.37
2019-02-14T09:49:39.394Z,46.43
2019-02-14T09:52:12.740Z,47.22
2019-02-14T09:54:46.700Z,46.84
2019-02-14T09:57:20.064Z,47.25
2019-02-14T09:59:53.497Z,47.55
2019-02-14T10:02:26.821Z,48.27
2019-02-14T10:05:01.662Z,48.15
2019-02-14T10:07:34.986Z,48.92
2019-02-14T10:10:11.681Z,49.64
2019-02-14T10:12:45.103Z,49.71
2019-02-14T10:15:18.545Z,49.82
2019-02-14T10:17:51.954Z,50.19
2019-02-14T10:20:25.313Z,50.46
2019-02-14T10:22:58.640Z,50.21
2019-02-14T10:25:32.142Z,50.35
2019-02-14T10:28:05.545Z,49.89
2019-02-14T10:30:40.244Z,50.81
2019-02-14T10:33:13.711Z,50.74
2019-02-14T10:35:47.105Z,50.35
2019-02-14T10:38:22.607Z,50.21
2019-02-14T10:40:55.581Z,50.51
2019-02-14T10:43:28.950Z,49.37
2019-02-14T10:46:02.490Z,49.36
2019-02-14T10:48:35.946Z,49.45
2019-02-14T10:51:09.350Z,49.09
2019-02-14T10:53:42.802Z,48.56
2019-02-14T10:56:16.197Z,48.86
2019-02-14T10:58:49.596Z,49.08
2019-02-14T11:01:23.028Z,48.58
2019-02-14T11:03:56.353Z,48.54
2019-02-14T11:06:29.777Z,48.58
2019-02-14T11:09:04.881Z,48.16
2019-02-14T11:11:38.359Z,47.66
2019-02-14T11:14:11.780Z,47.98
2019-02-14T11:16:45.209Z,47.36
2019-02-14T11:19:18.542Z,47.67
2019-02-14T11:21:52.167Z,47.85
2019-02-14T11:24:25.640Z,47.10
2019-02-14T11:26:59.116Z,48.26
2019-02-14T11:29:32.464Z,47.81
2019-02-14T11:32:05.912Z,47.52
2019-02-14T11:34:39.287Z,47.85
2019-02-14T11:37:12.651Z,46.53
2019-02-14T11:39:46.122Z,47.30
2019-02-14T11:42:19.498Z,46.93
2019-02-14T11:44:52.941Z,46.22
2019-02-14T11:47:26.469Z,46.79
2019-02-14T11:49:59.840Z,45.83
2019-02-14T11:52:33.204Z,46.05
2019-02-14T11:55:08.208Z,45.19
2019-02-14T11:57:41.666Z,42.54
2019-02-14T12:00:25.871Z,43.34
2019-02-14T12:02:59.201Z,43.25
2019-02-14T12:05:32.628Z,43.08
2019-02-14T12:08:06.029Z,43.57
2019-02-14T12:10:39.449Z,43.25
2019-02-14T12:13:12.783Z,42.32
2019-02-14T12:15:46.243Z,42.93
2019-02-14T12:18:19.678Z,42.16
2019-02-14T12:20:53.118Z,42.97
2019-02-14T12:23:26.444Z,42.80
2019-02-14T12:25:59.896Z,42.81
2019-02-14T12:28:33.308Z,42.65
2019-02-14T12:31:06.876Z,41.15
2019-02-14T12:33:40.285Z,38.32
2019-02-14T12:36:13.748Z,39.11
2019-02-14T12:38:47.178Z,38.27
2019-02-14T12:41:20.633Z,38.82
2019-02-14T12:43:53.972Z,39.59
2019-02-14T12:46:27.445Z,40.29
2019-02-14T12:49:00.916Z,39.91
2019-02-14T12:51:34.364Z,40.29
2019-02-14T12:54:07.690Z,40.16
2019-02-14T12:56:41.140Z,39.49
2019-02-14T12:59:14.527Z,39.46
2019-02-14T13:01:47.878Z,39.03
2019-02-14T13:04:21.211Z,38.98
2019-02-14T13:06:54.640Z,38.81
2019-02-14T13:09:28.089Z,39.67
2019-02-14T13:12:01.508Z,40.25
2019-02-14T13:14:34.839Z,40.21
2019-02-14T13:17:08.221Z,39.93
2019-02-14T13:19:41.623Z,39.29
2019-02-14T13:22:14.982Z,39.57
2019-02-14T13:24:48.311Z,39.69
2019-02-14T13:27:21.713Z,38.42
2019-02-14T13:29:55.172Z,39.23
2019-02-14T13:32:28.574Z,39.05
2019-02-14T13:35:01.983Z,38.86
2019-02-14T13:37:35.392Z,37.54
2019-02-14T13:40:09.273Z,37.82
2019-02-14T13:42:42.734Z,38.61
2019-02-14T13:45:21.882Z,38.15
2019-02-14T13:47:55.230Z,38.90
2019-02-14T13:50:28.616Z,39.59
2019-02-14T13:53:02.013Z,38.61
2019-02-14T13:55:35.430Z,37.90
2019-02-14T13:58:08.866Z,38.04
2019-02-14T14:00:42.181Z,36.45
2019-02-14T14:03:15.620Z,36.74
2019-02-14T14:05:49.011Z,37.21
2019-02-14T14:08:22.376Z,37.02
2019-02-14T14:10:55.794Z,38.66
2019-02-14T14:13:29.208Z,37.68
2019-02-14T14:16:02.607Z,37.32
2019-02-14T14:18:35.953Z,37.02
2019-02-14T14:21:09.417Z,36.74
2019-02-14T14:23:42.878Z,37.80
2019-02-14T14:26:16.230Z,38.15
2019-02-14T14:28:49.552Z,37.67
2019-02-14T14:31:23.025Z,37.43
2019-02-14T14:33:56.408Z,36.78
2019-02-14T14:36:29.762Z,36.19
2019-02-14T14:39:03.166Z,36.22
2019-02-14T14:41:36.619Z,37.10
2019-02-14T14:44:14.713Z,37.10
2019-02-14T14:46:48.226Z,36.60
2019-02-14T14:49:21.673Z,36.67
2019-02-14T14:51:55.085Z,36.15
2019-02-14T14:54:28.610Z,36.35
2019-02-14T14:57:02.396Z,37.55
2019-02-14T14:59:35.712Z,36.99
2019-02-14T15:02:09.134Z,36.81
2019-02-14T15:04:42.457Z,36.87
2019-02-14T15:07:15.890Z,36.57
2019-02-14T15:09:57.297Z,36.77
2019-02-14T15:12:24.431Z,35.97
2019-02-14T15:14:57.807Z,36.32
2019-02-14T15:17:33.177Z,36.93
2019-02-14T15:20:10.723Z,36.88
2019-02-14T15:22:44.151Z,36.21
2019-02-14T15:25:17.502Z,36.62
2019-02-14T15:27:50.960Z,36.91
2019-02-14T15:30:24.282Z,36.72
2019-02-14T15:32:57.635Z,37.15
2019-02-14T15:35:30.956Z,37.46
2019-02-14T15:38:04.330Z,38.70
2019-02-14T15:40:37.656Z,37.93
2019-02-14T15:43:11.094Z,38.19
2019-02-14T15:45:44.492Z,38.59
2019-02-14T15:48:17.840Z,38.15
2019-02-14T15:50:53.688Z,37.93
2019-02-14T15:53:26.391Z,38.30
2019-02-14T15:55:59.798Z,38.43
2019-02-14T15:58:33.269Z,38.34
2019-02-14T16:01:07.476Z,38.65
2019-02-14T16:03:42.736Z,39.27
2019-02-14T16:06:16.397Z,39.58
2019-02-14T16:08:50.329Z,39.84
2019-02-14T16:11:23.937Z,40.13
2019-02-14T16:13:57.326Z,40.33
2019-02-14T16:16:30.772Z,39.81
2019-02-14T16:19:04.501Z,40.31
2019-02-14T16:21:38.210Z,40.46
2019-02-14T16:24:11.628Z,40.68
2019-02-14T16:26:45.860Z,40.17
2019-02-14T16:29:19.270Z,41.04
2019-02-14T16:31:52.600Z,40.81
2019-02-14T16:34:26.031Z,40.85
2019-02-14T16:36:59.532Z,41.59
2019-02-14T16:39:32.925Z,41.49
2019-02-14T16:42:06.255Z,41.10
2019-02-14T16:44:39.618Z,41.81
2019-02-14T16:47:13.009Z,42.01
2019-02-14T16:49:46.455Z,42.84
2019-02-14T16:52:19.881Z,41.76
2019-02-14T16:54:53.378Z,42.49
2019-02-14T16:57:26.879Z,41.81
2019-02-14T17:00:00.518Z,42.20
2019-02-14T17:02:34.083Z,42.93
2019-02-14T17:05:07.794Z,42.62
2019-02-14T17:07:41.286Z,42.83
2019-02-14T17:10:15.032Z,43.92
2019-02-14T17:12:48.477Z,43.83
2019-02-14T17:15:21.902Z,43.30
2019-02-14T17:17:55.400Z,43.81
2019-02-14T17:20:28.766Z,43.62
2019-02-14T17:23:02.278Z,43.81
2019-02-14T17:25:35.598Z,44.23
2019-02-14T17:28:08.958Z,45.26
2019-02-14T17:30:42.354Z,45.21
2019-02-14T17:33:15.813Z,45.57
2019-02-14T17:35:49.141Z,45.66
2019-02-14T17:38:22.493Z,45.76
2019-02-14T17:40:55.827Z,45.78
2019-02-14T17:43:29.230Z,46.46
2019-02-14T17:46:02.632Z,46.78
2019-02-14T17:48:36.085Z,46.72
2019-02-14T17:51:09.517Z,46.62
2019-02-14T17:53:42.898Z,47.01
2019-02-14T17:56:16.354Z,47.19
2019-02-14T17:58:49.763Z,47.44
2019-02-14T18:01:26.096Z,47.75
2019-02-14T18:03:59.449Z,47.97
2019-02-14T18:06:32.840Z,48.37
2019-02-14T18:09:06.805Z,48.57
2019-02-14T18:11:40.199Z,48.42
2019-02-14T18:14:13.624Z,48.31
2019-02-14T18:16:46.957Z,48.50
2019-02-14T18:19:20.282Z,48.83
2019-02-14T18:21:53.816Z,49.11
2019-02-14T18:24:27.301Z,49.01
2019-02-14T18:27:00.799Z,48.74
2019-02-14T18:29:37.196Z,48.92
2019-02-14T18:32:10.545Z,49.09
2019-02-14T18:34:43.887Z,49.13
2019-02-14T18:37:17.279Z,49.14
2019-02-14T18:39:50.727Z,49.18
2019-02-14T18:42:24.208Z,49.52
2019-02-14T18:44:57.676Z,49.71
2019-02-14T18:47:39.294Z,49.95
2019-02-14T18:50:08.964Z,50.05
2019-02-14T18:52:42.433Z,50.23
2019-02-14T18:55:15.861Z,50.30
2019-02-14T18:57:49.318Z,50.38
2019-02-14T19:00:22.715Z,50.42
2019-02-14T19:02:56.241Z,50.54
2019-02-14T19:05:29.733Z,50.71
2019-02-14T19:08:03.177Z,50.89
2019-02-14T19:10:36.500Z,51.24
2019-02-14T19:13:09.922Z,51.19
2019-02-14T19:15:43.372Z,51.19
2019-02-14T19:18:16.791Z,51.43
2019-02-14T19:20:50.118Z,51.43
2019-02-14T19:23:24.522Z,51.65
2019-02-14T19:25:58.020Z,51.92
2019-02-14T19:28:31.402Z,51.92
2019-02-14T19:31:04.824Z,51.81
2019-02-14T19:33:38.193Z,51.82
2019-02-14T19:36:11.589Z,51.94
2019-02-14T19:38:45.013Z,51.99
2019-02-14T19:41:25.157Z,52.00
2019-02-14T19:43:53.629Z,52.23
2019-02-14T19:46:26.958Z,52.35
2019-02-14T19:49:00.409Z,52.22
2019-02-14T19:51:33.880Z,52.40
2019-02-14T19:54:07.251Z,52.41
2019-02-14T19:56:40.750Z,52.54
2019-02-14T19:59:14.214Z,52.59
2019-02-14T20:01:49.235Z,52.59
2019-02-14T20:04:22.695Z,52.35
2019-02-14T20:06:56.037Z,52.29
2019-02-14T20:09:29.454Z,52.65
2019-02-14T20:12:02.971Z,52.58
2019-02-14T20:14:36.388Z,52.73
2019-02-14T20:17:09.762Z,52.70
2019-02-14T20:19:43.212Z,52.71
2019-02-14T20:22:16.555Z,52.74
2019-02-14T20:24:50.058Z,52.89
2019-02-14T20:27:23.360Z,52.91
2019-02-14T20:29:56.783Z,53.11
2019-02-14T20:32:30.195Z,53.07
2019-02-14T20:35:04.227Z,52.92
2019-02-14T20:37:37.643Z,52.90
2019-02-14T20:40:11.268Z,52.91
2019-02-14T20:42:44.616Z,52.90
2019-02-14T20:45:18.022Z,53.19
2019-02-14T20:47:51.434Z,53.34
2019-02-14T20:50:24.822Z,53.48
2019-02-14T20:52:58.209Z,53.54
2019-02-14T20:55:31.638Z,53.67
2019-02-14T20:58:05.180Z,53.59
2019-02-14T21:00:38.691Z,53.56
2019-02-14T21:03:12.088Z,53.54
2019-02-14T21:05:45.585Z,53.54
2019-02-14T21:08:18.940Z,53.48
2019-02-14T21:10:52.431Z,53.45
2019-02-14T21:13:25.920Z,53.46
2019-02-14T21:15:59.574Z,53.64
2019-02-14T21:18:33.151Z,53.76
2019-02-14T21:21:06.814Z,53.69
2019-02-14T21:23:40.130Z,53.79
2019-02-14T21:26:14.133Z,53.83
2019-02-14T21:28:48.940Z,53.89
2019-02-14T21:31:22.461Z,53.85
2019-02-14T21:33:56.336Z,53.83
2019-02-14T21:36:30.097Z,53.75
2019-02-14T21:39:05.585Z,53.75
2019-02-14T21:41:39.035Z,53.82
2019-02-14T21:44:12.487Z,53.93
2019-02-14T21:46:45.849Z,53.94
2019-02-14T21:49:19.253Z,54.13
2019-02-14T21:51:52.643Z,54.17
2019-02-14T21:54:25.997Z,54.29
2019-02-14T21:56:59.328Z,54.19
2019-02-14T21:59:32.689Z,54.11
2019-02-14T22:02:06.770Z,54.10
2019-02-14T22:04:40.517Z,54.21
2019-02-14T22:07:13.886Z,54.30
2019-02-14T22:09:47.349Z,54.32
2019-02-14T22:12:38.955Z,54.34
2019-02-14T22:14:55.959Z,54.35
2019-02-14T22:17:29.398Z,54.38
2019-02-14T22:20:03.171Z,54.42
2019-02-14T22:22:36.655Z,54.52
2019-02-14T22:25:11.089Z,54.55
2019-02-14T22:27:44.552Z,54.35
2019-02-14T22:30:18.699Z,54.40
2019-02-14T22:32:52.097Z,54.49
2019-02-14T22:35:25.513Z,54.50
2019-02-14T22:37:58.974Z,54.50
2019-02-14T22:40:32.864Z,54.52
2019-02-14T22:43:06.184Z,54.65
2019-02-14T22:45:39.744Z,54.70
2019-02-14T22:48:13.139Z,54.78
2019-02-14T22:50:46.582Z,54.80
2019-02-14T22:53:20.091Z,54.81
2019-02-14T22:55:53.535Z,54.79
2019-02-14T22:58:26.857Z,54.86
2019-02-14T23:01:00.869Z,54.82
2019-02-14T23:03:34.509Z,54.84
2019-02-14T23:06:07.925Z,54.89
2019-02-14T23:08:41.255Z,54.91
2019-02-14T23:11:14.783Z,54.90
2019-02-14T23:13:48.104Z,54.93
2019-02-14T23:16:21.560Z,54.91
2019-02-14T23:18:54.915Z,54.99
2019-02-14T23:21:28.416Z,55.03
2019-02-14T23:24:01.876Z,55.02
2019-02-14T23:26:35.222Z,55.10
2019-02-14T23:29:09.073Z,55.12
2019-02-14T23:31:42.554Z,55.14
2019-02-14T23:34:15.969Z,55.12
2019-02-14T23:36:49.327Z,55.16
2019-02-14T23:39:22.647Z,55.21
2019-02-14T23:41:56.093Z,55.19
2019-02-14T23:44:29.449Z,55.22
2019-02-14T23:47:02.869Z,55.29
2019-02-14T23:49:36.207Z,55.29
2019-02-14T23:52:09.724Z,55.30
2019-02-14T23:54:43.124Z,55.20
2019-02-14T23:57:16.474Z,55.20
2019-02-14T23:59:49.850Z,55.26
